Time;durP1;ratioP1;P1;durP2;ratioP2;P2;SDS_P1;SDS_P2;PMS_P1;PMS_P2;Temp;Humidity;BMP_temperature;BMP_pressure;BME280_temperature;BME280_humidity;BME280_pressure;Samples;Min_cycle;Max_cycle;Signal;HPM_P1;HPM_P2
2023/12/05 07:12:37;;;;;;;;;;;;;;;6.87;78.56;96222.66;4190915;27;1595797;-75
2023/12/05 07:14:40;;;;;;;;;;;;;;;7.17;77.42;96233.94;4223441;28;5663;-75
2023/12/05 07:16:43;;;;;;;;;;;;;;;7.39;76.23;96226.06;4216653;28;5903;-74
2023/12/05 07:18:46;;;;;;;;;;;;;;;7.56;75.64;96233.53;4224573;28;5093;-75
2023/12/05 07:20:49;;;;;;;;;;;;;;;7.67;75.81;96241.91;4221910;28;5747;-74
2023/12/05 07:22:52;;;;;;;;;;;;;;;7.78;75.06;96239.59;4221256;28;5700;-74
2023/12/05 07:24:55;;;;;;;;;;;;;;;7.88;74.48;96236.66;4218225;28;5715;-75
2023/12/05 07:26:58;;;;;;;;;;;;;;;8.00;73.35;96239.56;4225419;28;6378;-74
2023/12/05 07:29:02;;;;;;;;;;;;;;;8.09;73.64;96244.53;4226347;28;5681;-74
2023/12/05 07:31:06;;;;;;;;;;;;;;;8.16;72.80;96244.59;4217825;28;5094;-74
2023/12/05 07:33:09;;;;;;;;;;;;;;;8.22;72.98;96249.06;4226669;28;5802;-75
2023/12/05 07:35:12;;;;;;;;;;;;;;;8.26;70.65;96250.31;4225632;28;5705;-74
2023/12/05 07:37:15;;;;;;;;;;;;;;;8.30;71.32;96245.50;4219824;28;6367;-74
2023/12/05 07:39:18;;;;;;;;;;;;;;;8.34;69.71;96247.56;4222039;28;5675;-74
2023/12/05 07:41:22;;;;;;;;;;;;;;;8.38;70.36;96258.53;4224073;28;5712;-74
2023/12/05 07:43:25;;;;;;;;;;;;;;;8.40;70.40;96267.06;4214650;28;5783;-74
2023/12/05 07:45:29;;;;;;;;;;;;;;;8.42;70.53;96265.06;4215500;28;5688;-75
2023/12/05 07:47:31;;;;;;;;;;;;;;;8.41;70.54;96269.50;4213616;28;5791;-74
2023/12/05 07:49:34;;;;;;;;;;;;;;;8.44;70.07;96278.84;4222304;28;5726;-75
2023/12/05 07:51:37;;;;;;;;;;;;;;;8.52;69.05;96288.41;4230604;28;5664;-75
2023/12/05 07:53:40;;;;;;;;;;;;;;;8.50;69.76;96287.81;4220741;28;5783;-75
2023/12/05 07:55:43;;;;;;;;;;;;;;;8.50;69.47;96293.88;4213761;28;5763;-75
2023/12/05 07:57:48;;;;;;;;;;;;;;;8.49;69.70;96300.13;4213089;28;6580;-74
2023/12/05 07:59:50;;;;;;;;;;;;;;;8.52;67.33;96294.50;4216297;28;5712;-75
2023/12/05 08:01:55;;;;;;;;;;;;;;;8.51;67.75;96295.50;4221239;28;5898;-74
2023/12/05 08:03:57;;;;;;;;;;;;;;;8.50;68.04;96304.44;4218328;28;5685;-75
2023/12/05 08:06:02;;;;;;;;;;;;;;;8.51;68.44;96303.41;4218233;28;5704;-75
2023/12/05 08:08:04;;;;;;;;;;;;;;;8.55;67.59;96304.66;4218233;28;5687;-76
2023/12/05 08:10:09;;;;;;;;;;;;;;;8.59;67.49;96308.53;4216963;28;5704;-74
2023/12/05 08:12:12;;;;;;;;;;;;;;;8.61;64.97;96311.81;4210343;28;5923;-75
2023/12/05 08:14:15;;;;;;;;;;;;;;;8.60;65.62;96306.69;4207009;28;5671;-74
2023/12/05 08:16:19;;;;;;;;;;;;;;;8.61;65.03;96300.44;4209757;28;5910;-75
2023/12/05 08:18:23;;;;;;;;;;;;;;;8.61;65.03;96306.53;4205998;28;5860;-74
2023/12/05 08:20:25;;;;;;;;;;;;;;;8.60;64.29;96310.16;4213722;28;5802;-74
2023/12/05 08:22:28;;;;;;;;;;;;;;;8.61;64.76;96309.16;4214443;28;5746;-74
2023/12/05 08:24:31;;;;;;;;;;;;;;;8.64;65.51;96331.69;4208977;28;5816;-75
2023/12/05 08:26:34;;;;;;;;;;;;;;;8.64;65.18;96331.69;4215467;28;5730;-74
2023/12/05 08:28:37;;;;;;;;;;;;;;;8.64;64.24;96332.50;4216185;28;5200;-74
2023/12/05 08:30:41;;;;;;;;;;;;;;;8.65;64.05;96328.84;4206898;28;6387;-74
2023/12/05 08:32:44;;;;;;;;;;;;;;;8.66;63.51;96333.09;4210108;28;5830;-73
2023/12/05 08:34:49;;;;;;;;;;;;;;;8.68;63.60;96349.53;4209993;28;5667;-74
2023/12/05 08:36:52;;;;;;;;;;;;;;;8.69;62.90;96345.88;4216882;28;5659;-76
2023/12/05 08:38:54;;;;;;;;;;;;;;;8.65;60.67;96343.84;4208521;28;5768;-74
2023/12/05 08:40:58;;;;;;;;;;;;;;;8.63;61.44;96351.94;4215013;28;5689;-74
2023/12/05 08:43:02;;;;;;;;;;;;;;;8.63;62.38;96351.94;4209786;28;5805;-75
2023/12/05 08:45:06;;;;;;;;;;;;;;;8.65;61.23;96349.09;4208739;28;5795;-75
2023/12/05 08:47:09;;;;;;;;;;;;;;;8.61;62.14;96366.31;4205833;28;6140;-74
2023/12/05 08:49:12;;;;;;;;;;;;;;;8.62;62.28;96371.41;4201266;28;5796;-74
2023/12/05 08:51:18;;;;;;;;;;;;;;;8.66;61.56;96371.81;4215542;28;5929;-75
2023/12/05 08:53:20;;;;;;;;;;;;;;;8.62;62.07;96384.56;4210678;28;5761;-75
2023/12/05 08:55:23;;;;;;;;;;;;;;;8.61;61.80;96380.31;4214878;28;5763;-74
2023/12/05 08:57:27;;;;;;;;;;;;;;;8.61;61.93;96379.50;4205440;28;5771;-75
2023/12/05 08:59:29;;;;;;;;;;;;;;;8.62;60.51;96386.38;4207003;28;5680;-75
2023/12/05 09:01:32;;;;;;;;;;;;;;;8.60;60.25;96386.56;4200869;28;5783;-74
2023/12/05 09:03:35;;;;;;;;;;;;;;;8.54;60.76;96386.53;4203236;28;5688;-75
2023/12/05 09:05:38;;;;;;;;;;;;;;;8.57;61.23;96389.56;4202788;28;5931;-75
2023/12/05 09:07:42;;;;;;;;;;;;;;;8.59;60.42;96384.94;4201440;28;6192;-74
2023/12/05 09:09:46;;;;;;;;;;;;;;;8.61;60.46;96393.47;4201549;28;5790;-75
2023/12/05 09:11:49;;;;;;;;;;;;;;;8.63;60.27;96391.47;4208863;28;5696;-74
2023/12/05 09:13:53;;;;;;;;;;;;;;;8.65;60.39;96391.28;4206181;28;5778;-75
2023/12/05 09:15:56;;;;;;;;;;;;;;;8.66;60.61;96391.06;4206262;28;5688;-74
2023/12/05 09:17:59;;;;;;;;;;;;;;;8.63;59.47;96399.38;4200797;28;5696;-75
2023/12/05 09:20:03;;;;;;;;;;;;;;;8.68;59.19;96393.53;4203667;28;5667;-74
2023/12/05 09:22:05;;;;;;;;;;;;;;;8.66;57.46;96392.91;4211578;28;7334;-74
2023/12/05 09:24:10;;;;;;;;;;;;;;;8.64;58.82;96392.28;4199556;28;5696;-74
2023/12/05 09:26:14;;;;;;;;;;;;;;;8.61;58.53;96393.47;4206641;28;5651;-75
2023/12/05 09:28:17;;;;;;;;;;;;;;;8.61;57.64;96392.66;4203382;28;5681;-75
2023/12/05 09:30:19;;;;;;;;;;;;;;;8.64;57.96;96395.72;4211363;28;5667;-75
2023/12/05 09:32:23;;;;;;;;;;;;;;;8.64;58.43;96402.81;4201319;28;5779;-75
2023/12/05 09:34:26;;;;;;;;;;;;;;;8.68;57.90;96407.50;4209618;28;5765;-74
2023/12/05 09:36:30;;;;;;;;;;;;;;;8.71;58.60;96412.38;4207073;28;6370;-75
2023/12/05 09:38:33;;;;;;;;;;;;;;;8.73;57.90;96417.50;4200869;28;5769;-74
2023/12/05 09:40:37;;;;;;;;;;;;;;;8.76;58.74;96414.47;4200701;28;5823;-74
2023/12/05 09:42:43;;;;;;;;;;;;;;;8.77;58.18;96421.38;4200070;28;5771;-75
2023/12/05 09:44:49;;;;;;;;;;;;;;;8.77;58.45;96416.09;4200462;28;5676;-75
2023/12/05 09:46:57;;;;;;;;;;;;;;;8.78;58.43;96411.63;4200445;28;6386;-75
2023/12/05 09:49:05;;;;;;;;;;;;;;;8.77;57.39;96421.38;4202452;28;5696;-75
2023/12/05 09:51:08;;;;;;;;;;;;;;;8.81;57.35;96419.16;4205811;28;5673;-75
2023/12/05 09:53:12;;;;;;;;;;;;;;;8.79;56.86;96418.53;4206174;28;5697;-75
2023/12/05 09:55:15;;;;;;;;;;;;;;;8.78;57.22;96422.19;4202185;28;5689;-74
2023/12/05 09:57:20;;;;;;;;;;;;;;;8.76;56.54;96425.00;4202304;28;5688;-74
2023/12/05 09:59:24;;;;;;;;;;;;;;;8.72;56.61;96432.50;4200339;28;5768;-74
2023/12/05 10:01:28;;;;;;;;;;;;;;;8.71;56.93;96430.03;4205078;28;5730;-74
2023/12/05 10:03:35;;;;;;;;;;;;;;;8.69;57.38;96424.94;4200039;28;5700;-74
2023/12/05 10:05:42;;;;;;;;;;;;;;;8.70;55.98;96433.66;4202521;28;5684;-74
2023/12/05 10:07:47;;;;;;;;;;;;;;;8.68;56.18;96435.69;4209520;28;5750;-74
2023/12/05 10:09:52;;;;;;;;;;;;;;;8.62;56.17;96432.00;4203590;28;5684;-74
2023/12/05 10:11:55;;;;;;;;;;;;;;;8.67;56.49;96432.22;4212110;28;5676;-74
2023/12/05 10:13:59;;;;;;;;;;;;;;;8.71;56.73;96441.38;4203123;28;5705;-75
2023/12/05 10:16:03;;;;;;;;;;;;;;;8.77;56.46;96441.63;4206253;28;5874;-75
2023/12/05 10:18:06;;;;;;;;;;;;;;;8.78;56.43;96432.72;4209912;28;5676;-75
2023/12/05 10:20:10;;;;;;;;;;;;;;;8.77;56.44;96436.38;4200298;28;5709;-76
2023/12/05 10:22:14;;;;;;;;;;;;;;;8.76;56.80;96435.56;4209969;28;5684;-74
2023/12/05 10:24:16;;;;;;;;;;;;;;;8.80;55.85;96433.34;4199747;28;5585;-75
2023/12/05 10:26:19;;;;;;;;;;;;;;;8.81;55.91;96432.34;4199915;28;7154;-75
2023/12/05 10:28:23;;;;;;;;;;;;;;;8.78;55.25;96422.19;4202356;28;5701;-75
2023/12/05 10:30:33;;;;;;;;;;;;;;;8.75;54.80;96416.28;4208581;28;5671;-75
2023/12/05 10:32:37;;;;;;;;;;;;;;;8.77;54.64;96416.09;4205673;28;5984;-74
2023/12/05 10:34:49;;;;;;;;;;;;;;;8.80;54.82;96414.91;4200188;28;5818;-74
2023/12/05 10:37:01;;;;;;;;;;;;;;;8.80;53.39;96414.91;4205628;28;5809;-74
2023/12/05 10:39:05;;;;;;;;;;;;;;;8.74;53.94;96416.50;4202950;28;5687;-74
2023/12/05 10:41:08;;;;;;;;;;;;;;;8.72;54.55;96403.50;4200257;28;5847;-74
2023/12/05 10:43:10;;;;;;;;;;;;;;;8.77;54.58;96410.81;4198691;28;5696;-73
2023/12/05 10:45:14;;;;;;;;;;;;;;;8.77;54.69;96405.56;4199829;28;5673;-74
2023/12/05 10:47:18;;;;;;;;;;;;;;;8.78;54.47;96409.81;4199189;28;5772;-74
2023/12/05 10:49:22;;;;;;;;;;;;;;;8.73;54.43;96405.13;4199545;28;5944;-74
2023/12/05 10:51:26;;;;;;;;;;;;;;;8.76;53.96;96403.94;4199630;28;5697;-75
2023/12/05 10:53:34;;;;;;;;;;;;;;;8.79;54.26;96406.16;4199600;28;5791;-74
2023/12/05 10:55:37;;;;;;;;;;;;;;;8.83;54.36;96414.50;4206140;28;6182;-75
2023/12/05 10:57:42;;;;;;;;;;;;;;;8.88;54.18;96414.75;4201360;28;5691;-75
2023/12/05 10:59:46;;;;;;;;;;;;;;;8.88;53.53;96417.41;4204425;28;5680;-74
2023/12/05 11:01:52;;;;;;;;;;;;;;;8.88;53.11;96406.84;4199609;28;5713;-74
2023/12/05 11:04:00;;;;;;;;;;;;;;;8.86;53.50;96408.88;4203204;28;5721;-74
2023/12/05 11:06:04;;;;;;;;;;;;;;;8.85;53.61;96412.53;4201334;28;5685;-75
2023/12/05 11:08:07;;;;;;;;;;;;;;;8.86;53.63;96412.31;4204133;28;5758;-75
2023/12/05 11:10:11;;;;;;;;;;;;;;;8.91;54.18;96414.38;4202989;28;5843;-75
2023/12/05 11:12:17;;;;;;;;;;;;;;;8.97;53.33;96417.06;4213014;28;6771;-75
2023/12/05 11:14:24;;;;;;;;;;;;;;;9.02;53.57;96413.84;4201120;28;5689;-74
2023/12/05 11:16:31;;;;;;;;;;;;;;;9.07;53.37;96406.19;4199727;28;5712;-75
2023/12/05 11:18:36;;;;;;;;;;;;;;;9.09;52.80;96404.16;4200249;28;5700;-76
2023/12/05 11:21:01;;;;;;;;;;;;;;;9.12;53.17;96409.03;4199424;28;5756;-75
2023/12/05 11:23:19;;;;;;;;;;;;;;;9.13;53.24;96405.41;4200713;28;5795;-76
2023/12/05 11:25:34;;;;;;;;;;;;;;;9.12;52.91;96408.22;4213812;28;5712;-75
2023/12/05 11:27:48;;;;;;;;;;;;;;;9.10;53.19;96408.44;4211166;28;7065;-75
2023/12/05 11:30:08;;;;;;;;;;;;;;;9.14;53.21;96408.84;4203331;28;5708;-74
2023/12/05 11:32:18;;;;;;;;;;;;;;;9.15;53.23;96398.09;4200548;28;5701;-75
2023/12/05 11:34:33;;;;;;;;;;;;;;;9.19;53.28;96396.72;4199243;28;5793;-75
2023/12/05 11:36:51;;;;;;;;;;;;;;;9.22;52.87;96398.97;4199034;28;5835;-75
2023/12/05 11:38:55;;;;;;;;;;;;;;;9.22;52.91;96393.69;4204892;28;5954;-75
2023/12/05 11:41:12;;;;;;;;;;;;;;;9.23;52.53;96399.78;4199575;28;5696;-74
2023/12/05 11:43:15;;;;;;;;;;;;;;;9.27;52.71;96396.56;4198876;28;5692;-74
2023/12/05 11:45:22;;;;;;;;;;;;;;;9.32;53.19;96402.06;4206070;28;5771;-74
2023/12/05 11:47:29;;;;;;;;;;;;;;;9.39;52.93;96393.38;4214233;28;5764;-74
2023/12/05 11:49:39;;;;;;;;;;;;;;;9.41;51.86;96391.38;4202393;28;5776;-74
2023/12/05 11:51:52;;;;;;;;;;;;;;;9.41;52.35;96399.28;4202321;28;5090;-74
2023/12/05 11:53:55;;;;;;;;;;;;;;;9.40;52.07;96398.47;4204383;28;5681;-75
2023/12/05 11:55:59;;;;;;;;;;;;;;;9.38;52.03;96399.66;4205993;28;5689;-74
2023/12/05 11:58:01;;;;;;;;;;;;;;;9.40;52.22;96389.72;4212974;28;5819;-74
2023/12/05 12:00:05;;;;;;;;;;;;;;;9.42;52.45;96395.63;4210959;28;5755;-75
2023/12/05 12:02:08;;;;;;;;;;;;;;;9.40;52.48;96400.25;4201647;28;5701;-74
2023/12/05 12:04:19;;;;;;;;;;;;;;;9.38;52.51;96403.09;4208217;28;5704;-74
2023/12/05 12:06:24;;;;;;;;;;;;;;;9.37;52.55;96400.66;4216943;28;5766;-75
2023/12/05 12:08:29;;;;;;;;;;;;;;;9.37;52.72;96411.22;4209968;28;5731;-75
2023/12/05 12:10:33;;;;;;;;;;;;;;;9.40;52.85;96402.91;4202326;28;5677;-75
2023/12/05 12:12:36;;;;;;;;;;;;;;;9.41;52.53;96409.84;4202052;28;5687;-76
2023/12/05 12:14:43;;;;;;;;;;;;;;;9.43;52.95;96408.63;4210695;28;5700;-73
2023/12/05 12:16:46;;;;;;;;;;;;;;;9.43;52.63;96402.53;4205977;28;5071;-75
2023/12/05 12:18:50;;;;;;;;;;;;;;;9.43;52.80;96410.44;4208496;28;5679;-75
2023/12/05 12:20:56;;;;;;;;;;;;;;;9.44;52.41;96417.34;4206509;28;5783;-75
2023/12/05 12:22:59;;;;;;;;;;;;;;;9.43;52.06;96411.25;4201927;28;5702;-75
2023/12/05 12:25:11;;;;;;;;;;;;;;;9.46;52.29;96415.34;4208440;28;5833;-75
2023/12/05 12:27:14;;;;;;;;;;;;;;;9.42;51.85;96407.00;4201214;28;5696;-75
2023/12/05 12:29:17;;;;;;;;;;;;;;;9.39;51.98;96404.72;4208916;28;5696;-75
2023/12/05 12:31:25;;;;;;;;;;;;;;;9.42;52.30;96403.56;4204009;28;5696;-74
2023/12/05 12:33:37;;;;;;;;;;;;;;;9.40;52.28;96401.09;4203122;28;5729;-74
2023/12/05 12:35:40;;;;;;;;;;;;;;;9.40;52.02;96400.25;4215819;28;5750;-94
2023/12/05 12:37:44;;;;;;;;;;;;;;;9.40;52.26;96400.25;4222465;28;5691;-91
2023/12/05 12:39:55;;;;;;;;;;;;;;;9.53;52.46;96395.91;4211155;28;5432;-87
2023/12/05 12:42:00;;;;;;;;;;;;;;;9.64;52.00;96402.44;4203911;28;7073;-73
2023/12/05 12:44:05;;;;;;;;;;;;;;;9.65;51.78;96397.97;4204663;28;5764;-79
2023/12/05 12:46:08;;;;;;;;;;;;;;;9.60;51.67;96401.19;4206935;28;5735;-79
2023/12/05 12:48:10;;;;;;;;;;;;;;;9.57;52.23;96406.88;4218061;28;5679;-79
2023/12/05 12:50:13;;;;;;;;;;;;;;;9.53;51.68;96405.63;4213894;28;5656;-79
2023/12/05 12:52:17;;;;;;;;;;;;;;;9.51;51.47;96407.63;4212966;28;5767;-78
2023/12/05 12:54:21;;;;;;;;;;;;;;;9.50;51.47;96406.00;4209695;28;5191;-79
2023/12/05 12:56:24;;;;;;;;;;;;;;;9.47;51.50;96406.41;4212150;28;5737;-78
2023/12/05 12:58:35;;;;;;;;;;;;;;;9.46;51.84;96410.06;4203157;28;5693;-80
2023/12/05 13:00:39;;;;;;;;;;;;;;;9.45;51.31;96409.25;4204675;28;5919;-79
2023/12/05 13:02:42;;;;;;;;;;;;;;;9.41;51.82;96401.94;4212731;28;5074;-80
2023/12/05 13:04:45;;;;;;;;;;;;;;;9.40;51.71;96406.38;4218323;28;5655;-79
2023/12/05 13:06:48;;;;;;;;;;;;;;;9.39;51.49;96403.91;4210421;28;5934;-79
2023/12/05 13:08:50;;;;;;;;;;;;;;;9.38;51.67;96404.94;4213514;28;5675;-80
2023/12/05 13:10:53;;;;;;;;;;;;;;;9.36;51.07;96399.03;4210469;28;5877;-78
2023/12/05 13:12:59;;;;;;;;;;;;;;;9.36;50.38;96414.88;4211940;28;5818;-80
2023/12/05 13:15:06;;;;;;;;;;;;;;;9.29;50.82;96410.38;4217165;28;5828;-80
2023/12/05 13:17:12;;;;;;;;;;;;;;;9.30;50.61;96409.38;4212245;28;5655;-78
2023/12/05 13:19:21;;;;;;;;;;;;;;;9.28;50.32;96402.63;4219845;28;5128;-79
2023/12/05 13:21:32;;;;;;;;;;;;;;;9.25;49.96;96411.75;4208739;28;7704;-79
2023/12/05 13:23:34;;;;;;;;;;;;;;;9.26;50.02;96410.75;4203211;28;5803;-79
2023/12/05 13:25:37;;;;;;;;;;;;;;;9.23;50.28;96411.16;4219047;28;6349;-80
2023/12/05 13:27:48;;;;;;;;;;;;;;;9.22;49.52;96409.53;4211259;28;5667;-80
2023/12/05 13:29:52;;;;;;;;;;;;;;;9.19;49.17;96412.56;4213876;28;5723;-80
2023/12/05 13:31:56;;;;;;;;;;;;;;;9.16;49.88;96409.47;4216669;28;5814;-79
2023/12/05 13:34:00;;;;;;;;;;;;;;;9.16;49.27;96414.75;4213410;28;5667;-80
2023/12/05 13:36:03;;;;;;;;;;;;;;;9.11;49.45;96407.41;4215574;28;5775;-80
2023/12/05 13:38:07;;;;;;;;;;;;;;;9.10;48.73;96418.97;4211497;28;5672;-80
2023/12/05 13:40:11;;;;;;;;;;;;;;;9.08;49.17;96425.47;4204412;28;5748;-79
2023/12/05 13:42:13;;;;;;;;;;;;;;;9.10;49.21;96424.25;4204036;28;5717;-79
2023/12/05 13:44:17;;;;;;;;;;;;;;;9.09;49.56;96435.00;4208469;28;5831;-79
2023/12/05 13:46:20;;;;;;;;;;;;;;;9.07;48.41;96429.91;4206705;28;5116;-79
2023/12/05 13:48:24;;;;;;;;;;;;;;;9.04;48.80;96428.47;4201843;28;7741;-80
2023/12/05 13:50:26;;;;;;;;;;;;;;;9.05;49.31;96429.28;4207052;28;5213;-79
2023/12/05 13:52:30;;;;;;;;;;;;;;;9.02;48.69;96437.56;4211238;28;7795;-80
2023/12/05 13:54:32;;;;;;;;;;;;;;;9.02;49.19;96437.56;4207008;28;5800;-80
2023/12/05 13:56:35;;;;;;;;;;;;;;;9.02;49.41;96445.47;4209870;28;5648;-80
2023/12/05 13:58:38;;;;;;;;;;;;;;;9.03;49.61;96441.84;4210696;28;5679;-80
2023/12/05 14:00:41;;;;;;;;;;;;;;;9.04;49.34;96444.28;4210528;28;5990;-80
2023/12/05 14:02:45;;;;;;;;;;;;;;;9.05;49.65;96445.09;4208665;28;5680;-79
2023/12/05 14:04:50;;;;;;;;;;;;;;;9.01;49.21;96446.50;4206307;28;5700;-80
2023/12/05 14:06:54;;;;;;;;;;;;;;;8.98;49.76;96444.25;4206682;28;5861;-79
2023/12/05 14:08:57;;;;;;;;;;;;;;;8.97;49.70;96442.63;4206719;28;5693;-81
2023/12/05 14:11:00;;;;;;;;;;;;;;;8.97;50.08;96450.53;4205209;28;5728;-79
2023/12/05 14:13:04;;;;;;;;;;;;;;;8.99;50.15;96453.78;4218760;28;5675;-80
2023/12/05 14:15:08;;;;;;;;;;;;;;;8.97;50.13;96455.81;4212162;28;5679;-80
2023/12/05 14:17:11;;;;;;;;;;;;;;;8.94;49.96;96450.88;4210535;28;5693;-79
2023/12/05 14:19:14;;;;;;;;;;;;;;;8.93;50.20;96450.06;4215393;28;6600;-79
2023/12/05 14:21:18;;;;;;;;;;;;;;;8.94;50.00;96458.81;4217903;28;5687;-79
2023/12/05 14:23:21;;;;;;;;;;;;;;;8.93;49.75;96450.06;4210128;28;6677;-79
2023/12/05 14:25:23;;;;;;;;;;;;;;;8.92;50.11;96459.00;4211717;28;5753;-80
2023/12/05 14:27:26;;;;;;;;;;;;;;;8.90;50.03;96457.56;4213040;28;5686;-80
2023/12/05 14:29:30;;;;;;;;;;;;;;;8.93;50.00;96473.00;4202153;28;5692;-79
2023/12/05 14:31:33;;;;;;;;;;;;;;;8.97;50.38;96474.25;4218440;28;5690;-79
2023/12/05 14:33:36;;;;;;;;;;;;;;;8.97;50.31;96469.00;4209699;28;5086;-79
2023/12/05 14:35:40;;;;;;;;;;;;;;;8.95;50.06;96471.00;4204797;28;7738;-79
2023/12/05 14:37:45;;;;;;;;;;;;;;;8.96;50.57;96477.91;4207028;28;5751;-81
2023/12/05 14:39:49;;;;;;;;;;;;;;;8.93;50.69;96468.53;4204936;28;5684;-79
2023/12/05 14:41:52;;;;;;;;;;;;;;;8.92;50.37;96471.38;4208216;28;5820;-80
2023/12/05 14:43:55;;;;;;;;;;;;;;;8.87;50.23;96468.50;4209757;28;5839;-80
2023/12/05 14:45:58;;;;;;;;;;;;;;;8.90;50.08;96478.66;4212955;28;5716;-80
2023/12/05 14:48:01;;;;;;;;;;;;;;;8.91;50.57;96469.72;4211798;28;5728;-79
2023/12/05 14:50:05;;;;;;;;;;;;;;;8.88;50.04;96480.66;4210473;28;5679;-80
2023/12/05 14:52:08;;;;;;;;;;;;;;;8.85;50.38;96481.06;4211640;28;5679;-80
2023/12/05 14:54:12;;;;;;;;;;;;;;;8.86;50.49;96485.31;4211630;28;5667;-81
2023/12/05 14:56:15;;;;;;;;;;;;;;;8.87;50.64;96482.50;4211920;28;5696;-81
2023/12/05 14:58:18;;;;;;;;;;;;;;;8.88;50.64;96491.22;4199453;28;5693;-78
2023/12/05 15:00:23;;;;;;;;;;;;;;;8.85;51.08;96491.59;4206978;28;5847;-74
2023/12/05 15:02:31;;;;;;;;;;;;;;;8.83;51.05;96498.84;4209007;28;5659;-80
2023/12/05 15:04:35;;;;;;;;;;;;;;;8.85;51.18;96492.41;4216230;28;5687;-78
2023/12/05 15:06:38;;;;;;;;;;;;;;;8.84;51.53;96490.78;4211194;28;5680;-81
2023/12/05 15:08:41;;;;;;;;;;;;;;;8.86;51.22;96498.50;4209103;28;5776;-83
2023/12/05 15:10:46;;;;;;;;;;;;;;;8.84;51.56;96498.69;4203631;28;5843;-82
2023/12/05 15:12:54;;;;;;;;;;;;;;;8.83;51.89;96499.66;4208405;28;5835;-83
2023/12/05 15:14:58;;;;;;;;;;;;;;;8.81;51.95;96501.69;4206132;28;5783;-84
2023/12/05 15:17:03;;;;;;;;;;;;;;;8.83;51.81;96510.22;4201062;28;5780;-85
2023/12/05 15:19:06;;;;;;;;;;;;;;;8.82;52.14;96513.03;4203905;28;5090;-85
2023/12/05 15:21:11;;;;;;;;;;;;;;;8.81;51.92;96514.88;4206674;28;5754;-80
2023/12/05 15:23:14;;;;;;;;;;;;;;;8.82;52.02;96521.75;4209307;28;5758;-84
2023/12/05 15:25:18;;;;;;;;;;;;;;;8.86;51.99;96524.84;4213723;28;5667;-82
2023/12/05 15:27:22;;;;;;;;;;;;;;;8.82;52.14;96526.22;4209094;28;5819;-80
2023/12/05 15:29:25;;;;;;;;;;;;;;;8.83;51.87;96526.03;4207468;28;5701;-75
2023/12/05 15:31:42;;;;;;;;;;;;;;;8.75;51.99;96536.72;4203943;28;5667;-71
2023/12/05 15:33:45;;;;;;;;;;;;;;;8.75;52.22;96529.63;4208405;28;5742;-76
2023/12/05 15:35:48;;;;;;;;;;;;;;;8.74;52.27;96525.34;4206286;28;5847;-77
2023/12/05 15:37:51;;;;;;;;;;;;;;;8.75;52.43;96534.91;4212421;28;5895;-81
2023/12/05 15:39:54;;;;;;;;;;;;;;;8.73;51.98;96531.63;4203837;28;5696;-79
2023/12/05 15:41:57;;;;;;;;;;;;;;;8.74;52.00;96533.28;4202253;28;5795;-79
2023/12/05 15:44:02;;;;;;;;;;;;;;;8.75;52.26;96534.09;4206287;28;5667;-76
2023/12/05 15:46:06;;;;;;;;;;;;;;;8.75;51.84;96534.91;4205817;28;5659;-74
2023/12/05 15:48:09;;;;;;;;;;;;;;;8.73;52.15;96529.00;4216579;28;5929;-76
2023/12/05 15:50:32;;;;;;;;;;;;;;;8.75;52.48;96532.25;4209435;28;6831;-75
2023/12/05 15:52:35;;;;;;;;;;;;;;;8.76;52.19;96530.44;4210796;28;5667;-77
2023/12/05 15:54:39;;;;;;;;;;;;;;;8.77;52.39;96531.25;4202118;28;5850;-78
2023/12/05 15:56:41;;;;;;;;;;;;;;;8.79;52.40;96534.50;4202940;28;5767;-77
2023/12/05 15:58:44;;;;;;;;;;;;;;;8.79;52.37;96537.97;4209243;28;5758;-76
2023/12/05 16:00:48;;;;;;;;;;;;;;;8.79;52.83;96545.06;4208634;28;5788;-76
2023/12/05 16:03:03;;;;;;;;;;;;;;;8.74;52.45;96537.72;4211765;28;5762;-76
2023/12/05 16:05:07;;;;;;;;;;;;;;;8.75;52.61;96545.44;4212206;28;5782;-77
2023/12/05 16:07:10;;;;;;;;;;;;;;;8.73;52.22;96555.34;4207746;28;5683;-76
2023/12/05 16:09:20;;;;;;;;;;;;;;;8.73;52.44;96552.72;4206827;28;5889;-76
2023/12/05 16:11:23;;;;;;;;;;;;;;;8.75;52.68;96555.97;4201428;28;5807;-77
2023/12/05 16:13:27;;;;;;;;;;;;;;;8.80;52.46;96558.03;4209364;28;5713;-77
2023/12/05 16:15:31;;;;;;;;;;;;;;;8.84;52.44;96558.50;4207263;28;5667;-76
2023/12/05 16:17:36;;;;;;;;;;;;;;;8.86;52.59;96557.31;4208868;28;5839;-76
2023/12/05 16:19:38;;;;;;;;;;;;;;;8.88;53.01;96559.75;4204237;28;5768;-75
2023/12/05 16:21:42;;;;;;;;;;;;;;;8.89;53.04;96566.66;4208212;28;5779;-75
2023/12/05 16:23:44;;;;;;;;;;;;;;;8.89;53.01;96561.38;4209568;28;5786;-76
2023/12/05 16:25:46;;;;;;;;;;;;;;;8.87;52.57;96563.38;4205439;28;5746;-76
2023/12/05 16:27:49;;;;;;;;;;;;;;;8.84;52.70;96558.50;4212053;28;5793;-76
2023/12/05 16:29:53;;;;;;;;;;;;;;;8.84;52.71;96569.88;4206371;28;6112;-77
2023/12/05 16:31:56;;;;;;;;;;;;;;;8.87;52.53;96568.66;4209814;28;5833;-75
2023/12/05 16:34:01;;;;;;;;;;;;;;;8.85;52.44;96565.41;4206048;28;5847;-77
2023/12/05 16:36:07;;;;;;;;;;;;;;;8.87;52.62;96566.03;4207515;28;5117;-76
2023/12/05 16:38:10;;;;;;;;;;;;;;;8.85;52.55;96570.69;4212775;28;5818;-76
2023/12/05 16:40:13;;;;;;;;;;;;;;;8.81;52.59;96559.66;4207903;28;5777;-76
2023/12/05 16:42:16;;;;;;;;;;;;;;;8.81;52.79;96564.94;4207636;28;5788;-77
2023/12/05 16:44:20;;;;;;;;;;;;;;;8.82;52.75;96565.75;4211667;28;5693;-81
2023/12/05 16:46:23;;;;;;;;;;;;;;;8.86;52.52;96561.75;4205838;28;5779;-79
2023/12/05 16:48:26;;;;;;;;;;;;;;;8.84;52.40;96561.97;4206735;28;6377;-77
2023/12/05 16:50:30;;;;;;;;;;;;;;;8.85;52.49;96568.03;4212999;28;5787;-77
2023/12/05 16:52:33;;;;;;;;;;;;;;;8.86;52.22;96572.31;4209667;28;5724;-78
2023/12/05 16:54:36;;;;;;;;;;;;;;;8.85;52.36;96565.41;4210955;28;5811;-80
2023/12/05 16:56:39;;;;;;;;;;;;;;;8.88;52.49;96568.47;4215485;28;5799;-80
2023/12/05 16:58:41;;;;;;;;;;;;;;;8.92;53.05;96576.81;4205016;28;5975;-79
2023/12/05 17:00:44;;;;;;;;;;;;;;;8.92;53.11;96582.91;4204943;28;7208;-77
2023/12/05 17:02:47;;;;;;;;;;;;;;;8.95;52.93;96582.53;4202687;28;5791;-78
2023/12/05 17:04:53;;;;;;;;;;;;;;;8.94;53.20;96572.16;4204122;28;5883;-78
2023/12/05 17:06:57;;;;;;;;;;;;;;;8.89;53.44;96582.47;4208384;28;5174;-78
2023/12/05 17:09:00;;;;;;;;;;;;;;;8.85;53.91;96570.69;4201546;28;6741;-79
2023/12/05 17:11:04;;;;;;;;;;;;;;;8.87;54.31;96574.75;4206114;28;5676;-79
2023/12/05 17:13:07;;;;;;;;;;;;;;;8.89;54.16;96585.91;4206643;28;5912;-85
2023/12/05 17:15:10;;;;;;;;;;;;;;;8.90;54.30;96579.63;4213715;28;5754;-85
2023/12/05 17:17:13;;;;;;;;;;;;;;;8.90;54.30;96576.19;4212737;28;5770;-87
2023/12/05 17:19:17;;;;;;;;;;;;;;;8.90;54.74;96578.81;4208568;28;6142;-87
2023/12/05 17:21:19;;;;;;;;;;;;;;;8.85;55.02;96579.41;4202919;28;5689;-80
2023/12/05 17:23:24;;;;;;;;;;;;;;;8.86;55.05;96573.13;4212228;28;5690;-82
2023/12/05 17:25:27;;;;;;;;;;;;;;;8.88;55.14;96579.03;4202673;28;5686;-78
2023/12/05 17:27:29;;;;;;;;;;;;;;;8.90;55.02;96577.00;4206610;28;5670;-78
2023/12/05 17:29:33;;;;;;;;;;;;;;;8.94;55.22;96580.06;4205608;28;5662;-79
2023/12/05 17:31:36;;;;;;;;;;;;;;;8.94;55.14;96580.06;4201971;28;5827;-75
2023/12/05 17:33:39;;;;;;;;;;;;;;;8.94;55.46;96588.78;4206760;28;5783;-77
2023/12/05 17:35:42;;;;;;;;;;;;;;;8.95;55.45;96593.09;4208373;28;5851;-75
2023/12/05 17:37:45;;;;;;;;;;;;;;;8.95;55.40;96592.28;4206386;28;5904;-79
2023/12/05 17:39:49;;;;;;;;;;;;;;;8.94;55.55;96582.72;4209406;28;5685;-76
2023/12/05 17:41:52;;;;;;;;;;;;;;;8.94;55.70;96587.97;4206140;28;5702;-76
2023/12/05 17:43:55;;;;;;;;;;;;;;;8.92;55.77;96588.19;4208043;28;5685;-76
2023/12/05 17:45:58;;;;;;;;;;;;;;;8.95;55.71;96587.81;4204636;28;5807;-77
2023/12/05 17:48:01;;;;;;;;;;;;;;;8.93;55.76;96584.53;4203597;28;5871;-76
2023/12/05 17:50:05;;;;;;;;;;;;;;;8.92;56.03;96592.63;4202918;28;5775;-77
2023/12/05 17:52:09;;;;;;;;;;;;;;;8.88;55.83;96588.75;4205275;28;5701;-77
2023/12/05 17:54:12;;;;;;;;;;;;;;;8.88;56.17;96589.56;4206119;28;5969;-78
2023/12/05 17:56:17;;;;;;;;;;;;;;;8.88;56.13;96591.38;4204585;28;5826;-77
2023/12/05 17:58:19;;;;;;;;;;;;;;;8.85;56.32;96591.75;4203829;28;6631;-77
2023/12/05 18:00:22;;;;;;;;;;;;;;;8.84;56.28;96590.13;4209333;28;5870;-77
2023/12/05 18:02:25;;;;;;;;;;;;;;;8.83;56.21;96599.03;4214363;28;5859;-77
2023/12/05 18:04:38;;;;;;;;;;;;;;;8.81;56.30;96606.31;4208688;28;5762;-77
2023/12/05 18:06:41;;;;;;;;;;;;;;;8.81;56.32;96601.03;4212430;28;5787;-77
2023/12/05 18:08:44;;;;;;;;;;;;;;;8.81;56.25;96596.56;4205836;28;5869;-76
2023/12/05 18:10:47;;;;;;;;;;;;;;;8.82;56.57;96600.84;4205852;28;5672;-74
2023/12/05 18:12:50;;;;;;;;;;;;;;;8.83;56.33;96604.28;4203539;28;5791;-77
2023/12/05 18:14:53;;;;;;;;;;;;;;;8.82;56.56;96603.47;4215133;28;5870;-77
2023/12/05 18:16:56;;;;;;;;;;;;;;;8.81;56.63;96601.03;4212399;28;6420;-76